sensor_id;sensor_type;location;lat;lon;timestamp;pressure;altitude;pressure_sealevel;temperature;humidity
13867;BME280;7003;46.982;15.248;2024-03-23T00:54:01;96771.06;;;6.93;100.00
13867;BME280;7003;46.982;15.248;2024-03-23T00:56:28;96769.34;;;6.97;100.00
13867;BME280;7003;46.982;15.248;2024-03-23T00:58:57;96764.84;;;6.97;100.00
13867;BME280;7003;46.982;15.248;2024-03-23T01:01:23;96765.91;;;7.05;100.00
13867;BME280;7003;46.982;15.248;2024-03-23T01:03:53;96760.63;;;7.05;100.00
13867;BME280;7003;46.982;15.248;2024-03-23T01:06:19;96753.94;;;7.08;100.00
13867;BME280;7003;46.982;15.248;2024-03-23T01:08:48;96746.94;;;7.20;100.00
13867;BME280;7003;46.982;15.248;2024-03-23T01:11:18;96748.34;;;7.26;100.00
13867;BME280;7003;46.982;15.248;2024-03-23T01:13:45;96745.72;;;7.09;100.00
13867;BME280;7003;46.982;15.248;2024-03-23T01:16:13;96735.91;;;6.92;100.00
13867;BME280;7003;46.982;15.248;2024-03-23T01:18:41;96735.13;;;6.92;100.00
13867;BME280;7003;46.982;15.248;2024-03-23T01:21:07;96738.84;;;6.91;100.00
13867;BME280;7003;46.982;15.248;2024-03-23T01:23:35;96735.44;;;6.82;100.00
13867;BME280;7003;46.982;15.248;2024-03-23T01:26:04;96722.22;;;6.82;100.00
13867;BME280;7003;46.982;15.248;2024-03-23T01:28:34;96718.34;;;6.88;100.00
13867;BME280;7003;46.982;15.248;2024-03-23T01:31:00;96716.13;;;6.81;100.00
13867;BME280;7003;46.982;15.248;2024-03-23T01:33:27;96722.38;;;6.85;100.00
13867;BME280;7003;46.982;15.248;2024-03-23T01:35:53;96723.31;;;6.64;100.00
13867;BME280;7003;46.982;15.248;2024-03-23T01:38:20;96728.88;;;6.53;100.00
13867;BME280;7003;46.982;15.248;2024-03-23T01:40:46;96727.63;;;6.51;100.00
13867;BME280;7003;46.982;15.248;2024-03-23T01:43:14;96726.06;;;6.41;100.00
13867;BME280;7003;46.982;15.248;2024-03-23T01:45:44;96718.13;;;6.33;100.00
13867;BME280;7003;46.982;15.248;2024-03-23T01:48:11;96710.50;;;6.40;100.00
13867;BME280;7003;46.982;15.248;2024-03-23T01:50:38;96703.09;;;6.85;100.00
13867;BME280;7003;46.982;15.248;2024-03-23T01:53:05;96695.34;;;6.88;100.00
13867;BME280;7003;46.982;15.248;2024-03-23T01:55:34;96693.44;;;6.63;100.00
13867;BME280;7003;46.982;15.248;2024-03-23T01:58:04;96694.53;;;6.71;100.00
13867;BME280;7003;46.982;15.248;2024-03-23T02:00:30;96695.63;;;6.61;100.00
13867;BME280;7003;46.982;15.248;2024-03-23T02:03:02;96687.53;;;6.40;100.00
13867;BME280;7003;46.982;15.248;2024-03-23T02:05:28;96680.06;;;6.34;100.00
13867;BME280;7003;46.982;15.248;2024-03-23T02:07:59;96678.63;;;6.28;100.00
13867;BME280;7003;46.982;15.248;2024-03-23T02:10:27;96687.81;;;6.30;100.00
13867;BME280;7003;46.982;15.248;2024-03-23T02:12:59;96682.06;;;6.37;100.00
13867;BME280;7003;46.982;15.248;2024-03-23T02:15:26;96674.13;;;6.28;100.00
13867;BME280;7003;46.982;15.248;2024-03-23T02:17:53;96675.63;;;6.12;100.00
13867;BME280;7003;46.982;15.248;2024-03-23T02:20:22;96663.53;;;6.11;100.00
13867;BME280;7003;46.982;15.248;2024-03-23T02:22:53;96654.88;;;6.36;100.00
13867;BME280;7003;46.982;15.248;2024-03-23T02:25:19;96656.09;;;6.30;100.00
13867;BME280;7003;46.982;15.248;2024-03-23T02:27:47;96648.50;;;6.46;100.00
13867;BME280;7003;46.982;15.248;2024-03-23T02:30:16;96650.34;;;6.28;100.00
13867;BME280;7003;46.982;15.248;2024-03-23T02:32:46;96645.69;;;6.25;100.00
13867;BME280;7003;46.982;15.248;2024-03-23T02:35:12;96644.13;;;6.24;100.00
13867;BME280;7003;46.982;15.248;2024-03-23T02:37:43;96641.97;;;6.26;100.00
13867;BME280;7003;46.982;15.248;2024-03-23T02:40:13;96644.63;;;6.26;100.00
13867;BME280;7003;46.982;15.248;2024-03-23T02:42:40;96641.47;;;6.15;100.00
13867;BME280;7003;46.982;15.248;2024-03-23T02:45:07;96642.56;;;6.14;100.00
13867;BME280;7003;46.982;15.248;2024-03-23T02:47:34;96643.19;;;6.03;100.00
13867;BME280;7003;46.982;15.248;2024-03-23T02:50:00;96635.56;;;6.10;100.00
13867;BME280;7003;46.982;15.248;2024-03-23T02:52:27;96642.41;;;6.11;100.00
13867;BME280;7003;46.982;15.248;2024-03-23T02:54:53;96637.25;;;6.06;100.00
13867;BME280;7003;46.982;15.248;2024-03-23T02:57:21;96629.34;;;6.06;100.00
13867;BME280;7003;46.982;15.248;2024-03-23T02:59:48;96620.41;;;5.85;100.00
13867;BME280;7003;46.982;15.248;2024-03-23T03:02:15;96620.41;;;5.85;100.00
13867;BME280;7003;46.982;15.248;2024-03-23T03:04:41;96627.47;;;6.06;100.00
13867;BME280;7003;46.982;15.248;2024-03-23T03:07:09;96619.34;;;5.86;100.00
13867;BME280;7003;46.982;15.248;2024-03-23T03:09:35;96616.69;;;5.77;100.00
13867;BME280;7003;46.982;15.248;2024-03-23T03:12:06;96624.66;;;5.94;100.00
13867;BME280;7003;46.982;15.248;2024-03-23T03:14:35;96617.66;;;5.50;100.00
13867;BME280;7003;46.982;15.248;2024-03-23T03:17:05;96607.72;;;5.47;100.00
13867;BME280;7003;46.982;15.248;2024-03-23T03:19:32;96608.66;;;5.51;100.00
13867;BME280;7003;46.982;15.248;2024-03-23T03:22:08;96611.44;;;5.46;100.00
13867;BME280;7003;46.982;15.248;2024-03-23T03:24:34;96616.88;;;5.41;100.00
13867;BME280;7003;46.982;15.248;2024-03-23T03:27:06;96608.94;;;5.41;100.00
13867;BME280;7003;46.982;15.248;2024-03-23T03:29:35;96602.56;;;5.42;100.00
13867;BME280;7003;46.982;15.248;2024-03-23T03:32:02;96597.63;;;5.40;100.00
13867;BME280;7003;46.982;15.248;2024-03-23T03:34:28;96591.81;;;5.69;100.00
13867;BME280;7003;46.982;15.248;2024-03-23T03:36:58;96594.78;;;5.76;100.00
13867;BME280;7003;46.982;15.248;2024-03-23T03:39:29;96598.56;;;5.45;100.00
13867;BME280;7003;46.982;15.248;2024-03-23T03:42:00;96600.06;;;5.37;100.00
13867;BME280;7003;46.982;15.248;2024-03-23T03:44:27;96607.06;;;5.33;100.00
13867;BME280;7003;46.982;15.248;2024-03-23T03:46:56;96592.72;;;5.17;100.00
13867;BME280;7003;46.982;15.248;2024-03-23T03:49:22;96588.81;;;5.14;100.00
13867;BME280;7003;46.982;15.248;2024-03-23T03:51:53;96589.09;;;5.13;100.00
13867;BME280;7003;46.982;15.248;2024-03-23T03:54:21;96592.88;;;5.20;100.00
13867;BME280;7003;46.982;15.248;2024-03-23T03:56:48;96592.03;;;5.02;100.00
13867;BME280;7003;46.982;15.248;2024-03-23T03:59:15;96591.16;;;5.16;100.00
13867;BME280;7003;46.982;15.248;2024-03-23T04:01:42;96577.72;;;5.03;100.00
13867;BME280;7003;46.982;15.248;2024-03-23T04:04:10;96581.72;;;4.92;100.00
13867;BME280;7003;46.982;15.248;2024-03-23T04:06:38;96571.81;;;4.98;100.00
13867;BME280;7003;46.982;15.248;2024-03-23T04:09:04;96567.56;;;5.19;100.00
13867;BME280;7003;46.982;15.248;2024-03-23T04:11:34;96567.56;;;5.19;100.00
13867;BME280;7003;46.982;15.248;2024-03-23T04:14:00;96566.00;;;5.58;100.00
13867;BME280;7003;46.982;15.248;2024-03-23T04:16:27;96570.16;;;5.50;100.00
13867;BME280;7003;46.982;15.248;2024-03-23T04:18:59;96562.97;;;5.25;100.00
13867;BME280;7003;46.982;15.248;2024-03-23T04:21:33;96559.78;;;5.06;100.00
13867;BME280;7003;46.982;15.248;2024-03-23T04:24:02;96559.09;;;4.91;100.00
13867;BME280;7003;46.982;15.248;2024-03-23T04:26:40;96557.44;;;5.04;100.00
13867;BME280;7003;46.982;15.248;2024-03-23T04:29:10;96553.38;;;4.98;100.00
13867;BME280;7003;46.982;15.248;2024-03-23T04:31:38;96554.84;;;5.13;100.00
13867;BME280;7003;46.982;15.248;2024-03-23T04:34:05;96540.69;;;5.00;100.00
13867;BME280;7003;46.982;15.248;2024-03-23T04:36:34;96539.31;;;5.11;100.00
13867;BME280;7003;46.982;15.248;2024-03-23T04:39:02;96549.00;;;5.24;100.00
13867;BME280;7003;46.982;15.248;2024-03-23T04:41:30;96544.59;;;5.11;100.00
13867;BME280;7003;46.982;15.248;2024-03-23T04:44:00;96541.59;;;4.95;100.00
13867;BME280;7003;46.982;15.248;2024-03-23T04:46:32;96530.72;;;4.97;100.00
13867;BME280;7003;46.982;15.248;2024-03-23T04:49:07;96538.75;;;5.23;100.00
13867;BME280;7003;46.982;15.248;2024-03-23T04:51:44;96538.28;;;5.21;100.00
13867;BME280;7003;46.982;15.248;2024-03-23T04:54:18;96542.50;;;5.30;100.00
13867;BME280;7003;46.982;15.248;2024-03-23T04:56:49;96540.09;;;5.12;100.00
13867;BME280;7003;46.982;15.248;2024-03-23T04:59:19;96537.91;;;5.05;100.00
13867;BME280;7003;46.982;15.248;2024-03-23T05:01:52;96541.00;;;5.07;100.00
13867;BME280;7003;46.982;15.248;2024-03-23T05:04:21;96528.28;;;5.00;100.00
13867;BME280;7003;46.982;15.248;2024-03-23T05:06:55;96533.00;;;5.21;100.00
13867;BME280;7003;46.982;15.248;2024-03-23T05:09:27;96521.88;;;5.32;100.00
13867;BME280;7003;46.982;15.248;2024-03-23T05:12:03;96520.34;;;5.40;100.00
13867;BME280;7003;46.982;15.248;2024-03-23T05:14:32;96521.88;;;5.32;100.00
13867;BME280;7003;46.982;15.248;2024-03-23T05:17:07;96524.22;;;5.34;100.00
13867;BME280;7003;46.982;15.248;2024-03-23T05:19:39;96519.88;;;4.98;100.00
13867;BME280;7003;46.982;15.248;2024-03-23T05:22:14;96524.75;;;5.14;100.00
13867;BME280;7003;46.982;15.248;2024-03-23T05:24:46;96522.91;;;5.14;100.00
13867;BME280;7003;46.982;15.248;2024-03-23T05:27:17;96526.06;;;5.25;100.00
13867;BME280;7003;46.982;15.248;2024-03-23T05:29:47;96517.84;;;5.35;100.00
13867;BME280;7003;46.982;15.248;2024-03-23T05:32:18;96513.38;;;5.44;100.00
13867;BME280;7003;46.982;15.248;2024-03-23T05:34:47;96509.34;;;5.47;100.00
13867;BME280;7003;46.982;15.248;2024-03-23T05:37:28;96513.75;;;5.86;100.00
13867;BME280;7003;46.982;15.248;2024-03-23T05:39:59;96504.03;;;5.95;100.00
13867;BME280;7003;46.982;15.248;2024-03-23T05:42:34;96497.94;;;5.86;100.00
13867;BME280;7003;46.982;15.248;2024-03-23T05:45:06;96496.56;;;5.88;100.00
13867;BME280;7003;46.982;15.248;2024-03-23T05:47:42;96494.25;;;5.95;100.00
13867;BME280;7003;46.982;15.248;2024-03-23T05:50:16;96489.28;;;6.02;100.00
13867;BME280;7003;46.982;15.248;2024-03-23T05:52:48;96500.16;;;6.18;100.00
13867;BME280;7003;46.982;15.248;2024-03-23T05:55:19;96495.31;;;5.94;100.00
13867;BME280;7003;46.982;15.248;2024-03-23T05:57:50;96490.97;;;5.98;100.00
13867;BME280;7003;46.982;15.248;2024-03-23T06:00:21;96500.56;;;5.86;100.00
13867;BME280;7003;46.982;15.248;2024-03-23T06:02:54;96492.66;;;6.20;100.00
13867;BME280;7003;46.982;15.248;2024-03-23T06:05:29;96489.25;;;6.28;100.00
13867;BME280;7003;46.982;15.248;2024-03-23T06:08:01;96481.59;;;6.44;100.00
13867;BME280;7003;46.982;15.248;2024-03-23T06:10:32;96478.91;;;6.70;100.00
13867;BME280;7003;46.982;15.248;2024-03-23T06:13:01;96479.63;;;6.87;100.00
13867;BME280;7003;46.982;15.248;2024-03-23T06:15:35;96472.50;;;7.17;100.00
13867;BME280;7003;46.982;15.248;2024-03-23T06:18:08;96465.50;;;7.51;100.00
13867;BME280;7003;46.982;15.248;2024-03-23T06:20:41;96458.78;;;7.95;100.00
13867;BME280;7003;46.982;15.248;2024-03-23T06:23:17;96472.91;;;8.20;100.00
13867;BME280;7003;46.982;15.248;2024-03-23T06:25:48;96465.81;;;8.11;100.00
13867;BME280;7003;46.982;15.248;2024-03-23T06:28:20;96464.56;;;8.09;100.00
13867;BME280;7003;46.982;15.248;2024-03-23T06:30:51;96461.84;;;8.18;100.00
13867;BME280;7003;46.982;15.248;2024-03-23T06:33:21;96470.03;;;8.25;100.00
13867;BME280;7003;46.982;15.248;2024-03-23T06:35:51;96470.25;;;8.40;100.00
13867;BME280;7003;46.982;15.248;2024-03-23T06:38:24;96469.59;;;8.43;100.00
13867;BME280;7003;46.982;15.248;2024-03-23T06:40:59;96467.84;;;8.47;100.00
13867;BME280;7003;46.982;15.248;2024-03-23T06:43:29;96469.06;;;8.50;100.00
13867;BME280;7003;46.982;15.248;2024-03-23T06:46:03;96459.78;;;8.56;100.00
13867;BME280;7003;46.982;15.248;2024-03-23T06:48:33;96462.78;;;8.55;100.00
13867;BME280;7003;46.982;15.248;2024-03-23T06:51:06;96462.44;;;8.56;100.00
13867;BME280;7003;46.982;15.248;2024-03-23T06:53:41;96466.88;;;8.64;100.00
13867;BME280;7003;46.982;15.248;2024-03-23T06:56:11;96464.47;;;8.59;100.00
13867;BME280;7003;46.982;15.248;2024-03-23T06:58:41;96463.47;;;8.64;100.00
13867;BME280;7003;46.982;15.248;2024-03-23T07:01:10;96461.03;;;8.59;100.00
13867;BME280;7003;46.982;15.248;2024-03-23T07:03:40;96465.00;;;8.65;100.00
13867;BME280;7003;46.982;15.248;2024-03-23T07:06:16;96462.81;;;8.91;100.00
13867;BME280;7003;46.982;15.248;2024-03-23T07:08:48;96462.94;;;8.95;100.00
13867;BME280;7003;46.982;15.248;2024-03-23T07:11:22;96454.22;;;9.06;100.00
13867;BME280;7003;46.982;15.248;2024-03-23T07:13:53;96449.16;;;8.89;100.00
13867;BME280;7003;46.982;15.248;2024-03-23T07:16:27;96455.88;;;8.74;100.00
13867;BME280;7003;46.982;15.248;2024-03-23T07:18:56;96451.91;;;8.80;100.00
13867;BME280;7003;46.982;15.248;2024-03-23T07:21:26;96450.22;;;8.76;100.00
13867;BME280;7003;46.982;15.248;2024-03-23T07:24:00;96443.81;;;8.65;100.00
13867;BME280;7003;46.982;15.248;2024-03-23T07:26:34;96446.34;;;8.73;100.00
13867;BME280;7003;46.982;15.248;2024-03-23T07:29:08;96457.44;;;8.87;100.00
13867;BME280;7003;46.982;15.248;2024-03-23T07:31:38;96449.38;;;8.96;100.00
13867;BME280;7003;46.982;15.248;2024-03-23T07:34:08;96444.38;;;9.07;100.00
13867;BME280;7003;46.982;15.248;2024-03-23T07:36:42;96445.50;;;9.18;100.00
13867;BME280;7003;46.982;15.248;2024-03-23T07:39:16;96447.03;;;9.31;100.00
13867;BME280;7003;46.982;15.248;2024-03-23T07:41:48;96435.53;;;9.39;100.00
13867;BME280;7003;46.982;15.248;2024-03-23T07:44:18;96435.94;;;9.53;100.00
13867;BME280;7003;46.982;15.248;2024-03-23T07:46:50;96438.72;;;9.57;100.00
13867;BME280;7003;46.982;15.248;2024-03-23T07:49:23;96432.38;;;9.61;100.00
13867;BME280;7003;46.982;15.248;2024-03-23T07:51:55;96437.00;;;9.77;100.00
13867;BME280;7003;46.982;15.248;2024-03-23T07:54:28;96435.03;;;10.01;100.00
13867;BME280;7003;46.982;15.248;2024-03-23T07:56:58;96431.84;;;9.96;100.00
13867;BME280;7003;46.982;15.248;2024-03-23T07:59:31;96437.75;;;9.89;100.00
13867;BME280;7003;46.982;15.248;2024-03-23T08:02:07;96428.91;;;9.85;100.00
13867;BME280;7003;46.982;15.248;2024-03-23T08:04:42;96427.16;;;10.17;100.00
13867;BME280;7003;46.982;15.248;2024-03-23T08:07:10;96421.50;;;10.19;100.00
13867;BME280;7003;46.982;15.248;2024-03-23T08:09:45;96415.88;;;10.36;100.00
13867;BME280;7003;46.982;15.248;2024-03-23T08:12:15;96419.72;;;10.38;100.00
13867;BME280;7003;46.982;15.248;2024-03-23T08:14:46;96420.84;;;10.53;100.00
13867;BME280;7003;46.982;15.248;2024-03-23T08:17:18;96413.00;;;10.72;100.00
13867;BME280;7003;46.982;15.248;2024-03-23T08:19:54;96403.63;;;10.78;100.00
13867;BME280;7003;46.982;15.248;2024-03-23T08:22:24;96405.84;;;10.92;100.00
13867;BME280;7003;46.982;15.248;2024-03-23T08:24:57;96400.09;;;11.22;100.00
13867;BME280;7003;46.982;15.248;2024-03-23T08:27:27;96401.09;;;11.33;100.00
13867;BME280;7003;46.982;15.248;2024-03-23T08:29:58;96393.19;;;11.36;100.00
13867;BME280;7003;46.982;15.248;2024-03-23T08:32:27;96388.50;;;11.49;100.00
13867;BME280;7003;46.982;15.248;2024-03-23T08:34:58;96384.28;;;11.48;100.00
13867;BME280;7003;46.982;15.248;2024-03-23T08:37:26;96380.41;;;11.61;100.00
13867;BME280;7003;46.982;15.248;2024-03-23T08:40:02;96380.13;;;11.85;100.00
13867;BME280;7003;46.982;15.248;2024-03-23T08:42:32;96369.31;;;12.17;100.00
13867;BME280;7003;46.982;15.248;2024-03-23T08:45:04;96376.50;;;12.36;100.00
13867;BME280;7003;46.982;15.248;2024-03-23T08:47:38;96375.16;;;12.45;100.00
13867;BME280;7003;46.982;15.248;2024-03-23T08:50:08;96363.41;;;12.72;100.00
13867;BME280;7003;46.982;15.248;2024-03-23T08:52:38;96360.69;;;13.44;100.00
13867;BME280;7003;46.982;15.248;2024-03-23T08:55:13;96354.72;;;13.88;100.00
13867;BME280;7003;46.982;15.248;2024-03-23T08:57:45;96361.59;;;14.22;86.16
13867;BME280;7003;46.982;15.248;2024-03-23T09:00:28;96347.31;;;14.48;95.71
13867;BME280;7003;46.982;15.248;2024-03-23T09:03:01;96341.00;;;14.67;95.46
13867;BME280;7003;46.982;15.248;2024-03-23T09:05:32;96332.63;;;14.72;91.79
13867;BME280;7003;46.982;15.248;2024-03-23T09:08:07;96329.94;;;14.72;77.29
13867;BME280;7003;46.982;15.248;2024-03-23T09:10:41;96318.34;;;14.57;91.28
13867;BME280;7003;46.982;15.248;2024-03-23T09:13:14;96313.00;;;14.54;79.77
13867;BME280;7003;46.982;15.248;2024-03-23T09:15:49;96311.19;;;14.28;77.64
13867;BME280;7003;46.982;15.248;2024-03-23T09:18:20;96307.44;;;14.36;80.04
13867;BME280;7003;46.982;15.248;2024-03-23T09:20:56;96311.25;;;14.32;76.19
13867;BME280;7003;46.982;15.248;2024-03-23T09:23:28;96315.06;;;14.34;75.82
13867;BME280;7003;46.982;15.248;2024-03-23T09:26:05;96314.94;;;14.20;85.72
13867;BME280;7003;46.982;15.248;2024-03-23T09:28:35;96300.88;;;14.26;83.23
13867;BME280;7003;46.982;15.248;2024-03-23T09:31:07;96293.66;;;14.31;92.71
13867;BME280;7003;46.982;15.248;2024-03-23T09:33:39;96287.94;;;14.36;97.91
13867;BME280;7003;46.982;15.248;2024-03-23T09:36:10;96285.88;;;14.18;91.90
13867;BME280;7003;46.982;15.248;2024-03-23T09:38:43;96276.06;;;14.30;87.72
13867;BME280;7003;46.982;15.248;2024-03-23T09:41:19;96283.22;;;14.18;74.87
13867;BME280;7003;46.982;15.248;2024-03-23T09:43:55;96277.47;;;14.16;71.96
13867;BME280;7003;46.982;15.248;2024-03-23T09:46:30;96276.56;;;14.02;74.12
13867;BME280;7003;46.982;15.248;2024-03-23T09:49:03;96265.97;;;14.12;78.39
13867;BME280;7003;46.982;15.248;2024-03-23T09:51:36;96263.78;;;14.25;77.48
13867;BME280;7003;46.982;15.248;2024-03-23T09:54:07;96251.56;;;14.75;92.25
13867;BME280;7003;46.982;15.248;2024-03-23T09:56:39;96249.38;;;15.78;86.65
13867;BME280;7003;46.982;15.248;2024-03-23T09:59:12;96241.38;;;16.74;80.34
13867;BME280;7003;46.982;15.248;2024-03-23T10:01:44;96237.03;;;17.22;70.98
13867;BME280;7003;46.982;15.248;2024-03-23T10:04:37;96237.78;;;18.06;68.80
13867;BME280;7003;46.982;15.248;2024-03-23T10:07:14;96226.97;;;18.65;58.30
13867;BME280;7003;46.982;15.248;2024-03-23T10:09:44;96226.13;;;18.20;56.13
13867;BME280;7003;46.982;15.248;2024-03-23T10:12:19;96225.38;;;17.64;58.69
13867;BME280;7003;46.982;15.248;2024-03-23T10:14:52;96221.56;;;17.48;58.75
13867;BME280;7003;46.982;15.248;2024-03-23T10:17:26;96212.94;;;17.88;60.96
13867;BME280;7003;46.982;15.248;2024-03-23T10:19:57;96208.84;;;18.21;54.04
13867;BME280;7003;46.982;15.248;2024-03-23T10:22:37;96214.75;;;17.29;52.41
13867;BME280;7003;46.982;15.248;2024-03-23T10:25:09;96205.44;;;17.48;51.13
13867;BME280;7003;46.982;15.248;2024-03-23T10:27:43;96199.53;;;16.94;53.36
13867;BME280;7003;46.982;15.248;2024-03-23T10:30:14;96187.81;;;17.40;56.32
13867;BME280;7003;46.982;15.248;2024-03-23T10:32:45;96193.28;;;17.22;56.39
13867;BME280;7003;46.982;15.248;2024-03-23T10:35:19;96189.22;;;17.69;53.99
13867;BME280;7003;46.982;15.248;2024-03-23T10:37:53;96194.94;;;17.78;53.25
13867;BME280;7003;46.982;15.248;2024-03-23T10:40:25;96179.91;;;18.32;55.87
13867;BME280;7003;46.982;15.248;2024-03-23T10:43:04;96168.53;;;18.59;50.81
13867;BME280;7003;46.982;15.248;2024-03-23T10:45:34;96161.72;;;19.49;49.56
13867;BME280;7003;46.982;15.248;2024-03-23T10:48:08;96163.59;;;19.79;46.61
13867;BME280;7003;46.982;15.248;2024-03-23T10:50:37;96156.47;;;19.92;47.45
13867;BME280;7003;46.982;15.248;2024-03-23T10:53:10;96156.19;;;20.76;46.75
13867;BME280;7003;46.982;15.248;2024-03-23T10:55:41;96140.84;;;20.73;49.58
13867;BME280;7003;46.982;15.248;2024-03-23T10:58:15;96132.28;;;20.31;47.08
13867;BME280;7003;46.982;15.248;2024-03-23T11:00:50;96138.75;;;21.00;46.88
13867;BME280;7003;46.982;15.248;2024-03-23T11:03:32;96125.75;;;21.51;46.20
13867;BME280;7003;46.982;15.248;2024-03-23T11:06:06;96117.91;;;21.73;44.77
13867;BME280;7003;46.982;15.248;2024-03-23T11:08:38;96113.72;;;21.68;42.16
13867;BME280;7003;46.982;15.248;2024-03-23T11:11:16;96106.16;;;22.12;42.19
13867;BME280;7003;46.982;15.248;2024-03-23T11:13:49;96095.56;;;22.01;43.30
13867;BME280;7003;46.982;15.248;2024-03-23T11:16:23;96092.91;;;22.30;42.57
13867;BME280;7003;46.982;15.248;2024-03-23T11:19:34;96077.88;;;22.29;41.76
13867;BME280;7003;46.982;15.248;2024-03-23T11:22:05;96068.59;;;22.14;43.30
13867;BME280;7003;46.982;15.248;2024-03-23T11:24:51;96064.59;;;21.86;39.01
13867;BME280;7003;46.982;15.248;2024-03-23T11:27:23;96054.53;;;21.54;42.56
13867;BME280;7003;46.982;15.248;2024-03-23T11:30:11;96055.88;;;21.78;43.24
13867;BME280;7003;46.982;15.248;2024-03-23T11:32:45;96057.00;;;21.12;44.23
13867;BME280;7003;46.982;15.248;2024-03-23T11:35:28;96041.66;;;22.07;41.06
13867;BME280;7003;46.982;15.248;2024-03-23T11:38:10;96035.91;;;22.62;41.41
13867;BME280;7003;46.982;15.248;2024-03-23T11:40:44;96030.47;;;22.91;40.78
13867;BME280;7003;46.982;15.248;2024-03-23T11:43:15;96030.81;;;22.52;38.07
13867;BME280;7003;46.982;15.248;2024-03-23T11:45:50;96023.69;;;22.29;38.55
13867;BME280;7003;46.982;15.248;2024-03-23T11:48:24;96009.41;;;22.41;35.34
13867;BME280;7003;46.982;15.248;2024-03-23T11:50:59;96008.13;;;23.00;36.70
13867;BME280;7003;46.982;15.248;2024-03-23T11:53:29;96005.78;;;22.19;32.89
13867;BME280;7003;46.982;15.248;2024-03-23T11:56:01;96005.13;;;22.69;39.36
13867;BME280;7003;46.982;15.248;2024-03-23T11:58:36;95992.25;;;22.60;40.54
13867;BME280;7003;46.982;15.248;2024-03-23T12:01:11;95988.00;;;22.59;40.97
13867;BME280;7003;46.982;15.248;2024-03-23T12:03:45;95980.59;;;22.47;41.33
13867;BME280;7003;46.982;15.248;2024-03-23T12:06:20;95977.56;;;22.45;41.07
13867;BME280;7003;46.982;15.248;2024-03-23T12:08:49;95969.56;;;22.13;42.77
13867;BME280;7003;46.982;15.248;2024-03-23T12:11:20;95958.16;;;21.60;42.66
13867;BME280;7003;46.982;15.248;2024-03-23T12:13:50;95947.38;;;21.28;44.19
13867;BME280;7003;46.982;15.248;2024-03-23T12:16:26;95953.03;;;21.17;45.29
13867;BME280;7003;46.982;15.248;2024-03-23T12:19:05;95950.31;;;21.33;46.83
13867;BME280;7003;46.982;15.248;2024-03-23T12:21:37;95941.66;;;21.55;43.12
13867;BME280;7003;46.982;15.248;2024-03-23T12:24:07;95943.44;;;21.45;42.26
13867;BME280;7003;46.982;15.248;2024-03-23T12:26:43;95928.59;;;21.98;41.93
13867;BME280;7003;46.982;15.248;2024-03-23T12:29:12;95932.69;;;20.93;42.49
13867;BME280;7003;46.982;15.248;2024-03-23T12:31:47;95936.84;;;20.97;41.55
13867;BME280;7003;46.982;15.248;2024-03-23T12:34:17;95932.84;;;20.33;46.21
13867;BME280;7003;46.982;15.248;2024-03-23T12:36:51;95922.09;;;21.18;45.28
13867;BME280;7003;46.982;15.248;2024-03-23T12:39:26;95917.25;;;21.42;43.92
13867;BME280;7003;46.982;15.248;2024-03-23T12:42:02;95919.56;;;21.27;43.17
13867;BME280;7003;46.982;15.248;2024-03-23T12:44:33;95914.63;;;20.90;46.74
13867;BME280;7003;46.982;15.248;2024-03-23T12:47:08;95914.28;;;20.88;45.10
13867;BME280;7003;46.982;15.248;2024-03-23T12:49:39;95923.16;;;20.52;46.37
13867;BME280;7003;46.982;15.248;2024-03-23T12:52:10;95922.09;;;19.90;42.19
13867;BME280;7003;46.982;15.248;2024-03-23T12:54:40;95913.22;;;20.29;44.78
13867;BME280;7003;46.982;15.248;2024-03-23T12:57:13;95910.38;;;20.56;44.33
13867;BME280;7003;46.982;15.248;2024-03-23T12:59:45;95907.97;;;19.83;46.34
13867;BME280;7003;46.982;15.248;2024-03-23T13:02:22;95900.06;;;19.52;44.25
13867;BME280;7003;46.982;15.248;2024-03-23T13:04:53;95903.88;;;19.55;46.71
13867;BME280;7003;46.982;15.248;2024-03-23T13:07:27;95901.19;;;19.75;45.23
13867;BME280;7003;46.982;15.248;2024-03-23T13:09:59;95894.06;;;19.84;40.03
13867;BME280;7003;46.982;15.248;2024-03-23T13:12:30;95893.00;;;20.38;37.94
13867;BME280;7003;46.982;15.248;2024-03-23T13:15:01;95876.63;;;20.09;38.74
13867;BME280;7003;46.982;15.248;2024-03-23T13:17:40;95884.44;;;20.03;41.24
13867;BME280;7003;46.982;15.248;2024-03-23T13:20:11;95873.47;;;20.50;39.75
13867;BME280;7003;46.982;15.248;2024-03-23T13:22:42;95875.34;;;20.13;41.24
13867;BME280;7003;46.982;15.248;2024-03-23T13:25:12;95879.19;;;19.96;42.08
13867;BME280;7003;46.982;15.248;2024-03-23T13:27:42;95872.75;;;19.50;40.64
13867;BME280;7003;46.982;15.248;2024-03-23T13:30:14;95864.66;;;19.90;39.20
13867;BME280;7003;46.982;15.248;2024-03-23T13:32:49;95848.16;;;20.24;39.04
13867;BME280;7003;46.982;15.248;2024-03-23T13:35:18;95855.66;;;20.68;39.94
13867;BME280;7003;46.982;15.248;2024-03-23T13:37:50;95853.22;;;21.23;39.92
13867;BME280;7003;46.982;15.248;2024-03-23T13:40:20;95842.50;;;22.31;38.63
13867;BME280;7003;46.982;15.248;2024-03-23T13:42:51;95834.88;;;21.59;36.16
13867;BME280;7003;46.982;15.248;2024-03-23T13:45:21;95837.09;;;22.31;38.38
13867;BME280;7003;46.982;15.248;2024-03-23T13:47:53;95838.63;;;23.30;36.59
13867;BME280;7003;46.982;15.248;2024-03-23T13:50:25;95830.28;;;24.33;34.42
13867;BME280;7003;46.982;15.248;2024-03-23T13:52:56;95833.47;;;24.10;34.28
13867;BME280;7003;46.982;15.248;2024-03-23T13:55:26;95820.53;;;22.42;34.65
13867;BME280;7003;46.982;15.248;2024-03-23T13:57:57;95824.84;;;21.72;34.69
13867;BME280;7003;46.982;15.248;2024-03-23T14:00:26;95808.06;;;22.19;36.61
13867;BME280;7003;46.982;15.248;2024-03-23T14:03:05;95813.81;;;22.21;36.72
13867;BME280;7003;46.982;15.248;2024-03-23T14:05:36;95809.09;;;21.26;35.26
13867;BME280;7003;46.982;15.248;2024-03-23T14:08:10;95810.66;;;22.10;33.07
13867;BME280;7003;46.982;15.248;2024-03-23T14:10:42;95812.06;;;21.60;35.46
13867;BME280;7003;46.982;15.248;2024-03-23T14:13:13;95812.94;;;20.47;38.37
13867;BME280;7003;46.982;15.248;2024-03-23T14:15:44;95807.47;;;20.67;36.66